METAR Data
IDs: Format: Raw Decoded Include TAF

Data at: 1313 UTC 10 Aug 2022

KFUL 101253Z AUTO 00000KT 10SM CLR 22/18 A2996 RMK AO2 SLP143 T02220178
KFUL 101153Z AUTO 00000KT 10SM CLR 23/17 A2994 RMK AO2 SLP137 T02280172 10239 20228 56005
KFUL 101053Z AUTO 00000KT 10SM CLR 23/17 A2994 RMK AO2 SLP139 T02280172
KFUL 100953Z AUTO 00000KT 10SM CLR 23/17 A2994 RMK AO2 SLP139 T02280167
KFUL 100853Z AUTO 00000KT 10SM CLR 23/17 A2995 RMK AO2 SLP142 T02330167 58002
KFUL 100753Z AUTO 00000KT 10SM CLR 23/16 A2996 RMK AO2 SLP143 T02330161 403500222
KFUL 100653Z AUTO 13004KT 10SM CLR 23/17 A2996 RMK AO2 SLP145 T02330172
KFUL 100553Z AUTO 15004KT 10SM CLR 24/17 A2996 RMK AO2 SLP144 T02390167 10317 20239 51025
KFUL 100453Z AUTO 16004KT 10SM CLR 24/17 A2995 RMK AO2 SLP140 T02440172
KFUL 100353Z AUTO 16004KT 10SM CLR 26/17 A2992 RMK AO2 SLP129 T02610167
KFUL 100253Z 16006KT 10SM CLR 28/16 A2989 RMK AO2 SLP119 T02780161 53006
KFUL 100153Z 19005KT 10SM CLR 31/11 A2987 RMK AO2 SLP115 T03060111
KFUL 100053Z 21008KT 10SM CLR 31/12 A2986 RMK AO2 SLP110 T03060117
KFUL 092353Z 20008KT 10SM CLR 32/12 A2987 RMK AO2 SLP112 T03170117 10350 20317 56012
KFUL 092253Z 21009KT 10SM CLR 33/08 A2987 RMK AO2 SLP114 T03280078
KFUL 092153Z 20010KT 10SM FEW060 FEW130 FEW250 34/06 A2988 RMK AO2 SLP117 CB DSNT NE AND E T03390056
KFUL 092053Z 23007KT 10SM FEW100 SCT210 34/09 A2990 RMK AO2 SLP124 T03390089 58010
KFUL 091953Z 21008KT 10SM CLR 33/14 A2991 RMK AO2 SLP128 T03330139
KFUL 091853Z VRB04KT 10SM CLR 32/14 A2992 RMK AO2 SLP131 T03220144
KFUL 091753Z 20006KT 10SM CLR 32/13 A2993 RMK AO2 SLP134 T03170128 10322 20222 50001
KFUL 091653Z VRB04KT 10SM FEW060 SCT130 SCT250 29/16 A2993 RMK AO2 SLP134 T02890156
KFUL 091553Z 00000KT 10SM CLR 27/16 A2994 RMK AO2 SLP137 T02720156
KFUL 091453Z 00000KT 10SM FEW130 FEW250 25/18 A2993 RMK AO2 SLP132 T02500178 51014
KFUL 091353Z 00000KT 10SM SCT130 SCT250 23/18 A2992 RMK AO2 SLP129 T02330178
KFUL 091253Z AUTO 00000KT 10SM CLR 23/17 A2990 RMK AO2 SLP122 T02280172
KFUL 091153Z AUTO 00000KT 10SM CLR 23/17 A2988 RMK AO2 SLP118 T02280172 10239 20228 56004
KFUL 091053Z AUTO 00000KT 10SM CLR 23/17 A2988 RMK AO2 SLP118 T02330172
KFUL 090953Z AUTO 00000KT 10SM CLR 23/18 A2989 RMK AO2 SLP120 T02330178
KFUL 090853Z AUTO 00000KT 9SM CLR 23/17 A2989 RMK AO2 SLP122 T02330172 58008
KFUL 090753Z AUTO 00000KT 10SM CLR 23/18 A2991 RMK AO2 SLP127 T02330178 403170206
KFUL 090653Z AUTO 14003KT 10SM CLR 24/17 A2993 RMK AO2 SLP133 T02390167
KFUL 090553Z AUTO 00000KT 10SM CLR 23/16 A2992 RMK AO2 SLP130 T02330161 10300 20233 50012
KFUL 090453Z AUTO 00000KT 10SM CLR 24/16 A2992 RMK AO2 SLP130 T02390161
KFUL 090353Z 00000KT 10SM CLR 24/16 A2991 RMK AO2 SLP126 T02440156
KFUL 090253Z 18005KT 10SM CLR 26/17 A2988 RMK AO2 SLP118 T02610167 53008
KFUL 090153Z 21005KT 10SM CLR 27/16 A2985 RMK AO2 SLP108 T02720161